CheckWX is a tool to help pilots better visualize weather data.  It is not intended as a substitute for an official pre-flight weather briefing.

20:54:21 UTC

KCNU TAF
Chanute Martin Johnson Airport
Chanute, Kansas, USA
KCNU 221734Z 2218/2318 VRB03KT P6SM SCT250 FM222300 VRB04KT P6SM BKN200 FM230700 VRB05KT P6SM VCSH OVC100 FM231000 VRB05KT 6SM -SHRA OVC100 FM231400 12010G16KT 6SM -SHRA OVC060 FM231700 14012G20KT 6SM -SHRA OVC028

Mar-22@
18:00 UTC

Mar-22 @ 18:00 UTC

Mar-22@
23:00 UTC

Mar-22 @ 23:00 UTC

KCNU 221734Z 2218/2318 VRB03KT P6SM SCT250
Wind
  • Variable at 3 KTS
Cloud Levels
  • Scattered at 25,000' AGL

Mar-22@
23:00 UTC

Mar-22 @ 23:00 UTC

Mar-23@
07:00 UTC

Mar-23 @ 07:00 UTC

FM222300 VRB04KT P6SM BKN200

From

From Standard forecast or significant change

Wind
  • Variable at 4 KTS
Cloud Levels
  • Broken at 20,000' AGL

Mar-23@
07:00 UTC

Mar-23 @ 07:00 UTC

Mar-23@
10:00 UTC

Mar-23 @ 10:00 UTC

FM230700 VRB05KT P6SM VCSH OVC100

From

From Standard forecast or significant change

Wind
  • Variable at 5 KTS
Cloud Levels
  • Overcast at 10,000' AGL

Mar-23@
10:00 UTC

Mar-23 @ 10:00 UTC

Mar-23@
14:00 UTC

Mar-23 @ 14:00 UTC

FM231000 VRB05KT 6SM -SHRA OVC100

From

From Standard forecast or significant change

Wind
  • Variable at 5 KTS
Conditions
Light Rain
Cloud Levels
  • Overcast at 10,000' AGL

Mar-23@
14:00 UTC

Mar-23 @ 14:00 UTC

Mar-23@
17:00 UTC

Mar-23 @ 17:00 UTC

FM231400 12010G16KT 6SM -SHRA OVC060

From

From Standard forecast or significant change

Wind
  • 120° at 10 KTS
  • {Gusting to 16 KTS
Conditions
Light Rain
Cloud Levels
  • Overcast at 6,000' AGL

Mar-23@
17:00 UTC

Mar-23 @ 17:00 UTC

Mar-23@
18:00 UTC

Mar-23 @ 18:00 UTC

FM231700 14012G20KT 6SM -SHRA OVC028

From

From Standard forecast or significant change

Wind
  • 140° at 12 KTS
  • {Gusting to 20 KTS
Conditions
Light Rain
Cloud Levels
  • Overcast at 2,800' AGL